• Join FlightAware (Why Join?)
  • Login
  • US Flag 
08:23AM EDT


 

Airport Tracker/Info


-or-


 

Live Flight TrackerFlight Track Log ✈ N130LH ✈ 20-May-2013 ✈ KOKM - KGUP

Flight Track Log - Related Links

Times and Time Zones

All times are in EDT time to prevent confusion due to time zone crossing. See the N130LH flight status page for this flight to view local times or setup timezone preferences in your user account.

Time Position Orientation Groundspeed Altitude Reporting Facility
EDT Latitude Longitude Course Direction KTS MPH feet Rate Location/Type
12:22PM 35.6519 -95.9131 270° West 141 162 1,900  Level Kansas City Center
12:23PM 35.6542 -95.8408 88° East 162 186 2,500 300 Climbing Kansas City Center
12:24PM 35.6561 -95.8264 81° East 150 173 2,400 180 Descending Kansas City Center
12:25PM 35.6833 -95.7878 49° Northeast 170 196 2,800 540 Climbing Kansas City Center
12:26PM 35.6875 -95.8275 277° West 145 167 3,600 720 Climbing Kansas City Center
12:27PM 35.6892 -95.8736 273° West 132 152 4,300 720 Climbing Kansas City Center
12:28PM 35.6667 -96.2017 270° West  Level FlightAware Approximate
12:28PM 35.6903 -95.9125 272° West 121 139 5,100  Level Kansas City Center
12:29PM 35.6919 -95.9472 273° West 108 124 5,900 780 Climbing Kansas City Center
12:30PM 35.6936 -95.9906 273° West 105 121 6,700 780 Climbing Kansas City Center
12:31PM 35.6947 -96.0256 272° West 104 120 7,500 720 Climbing Kansas City Center
12:32PM 35.6958 -96.0611 272° West 104 120 8,300 660 Climbing Kansas City Center
12:33PM 35.6967 -96.0931 272° West 100 115 8,900 540 Climbing Kansas City Center
12:34PM 35.6981 -96.1189 274° West 96 110 9,300 480 Climbing Kansas City Center
12:35PM 35.6989 -96.1542 272° West 100 115 9,800 240 Climbing Kansas City Center
12:36PM 35.7008 -96.1947 273° West 112 129 9,900  Climbing Kansas City Center
12:37PM 35.7019 -96.2392 272° West 126 145 9,900  Level Kansas City Center
12:38PM 35.7039 -96.2933 273° West 131 151 9,900  Level Kansas City Center
12:39PM 35.7058 -96.3364 273° West 128 147 9,900  Level Kansas City Center
12:40PM 35.7072 -96.3794 272° West 128 147 9,900  Level Kansas City Center
12:41PM 35.7086 -96.4236 272° West 128 147 9,900  Level Kansas City Center
12:42PM 35.7100 -96.4661 272° West 127 146 9,900  Level Kansas City Center
12:43PM 35.7111 -96.5114 272° West 131 151 9,900  Level Kansas City Center
12:44PM 35.7131 -96.5656 273° West 132 152 10,000  Climbing Kansas City Center
12:45PM 35.7153 -96.6108 273° West 132 152 9,900  Descending Kansas City Center
12:46PM 35.7164 -96.6558 272° West 133 153 10,000  Climbing Kansas City Center
12:47PM 35.7183 -96.7017 273° West 133 153 9,900 -60 Descending Kansas City Center
12:48PM 35.7194 -96.7472 272° West 134 154 9,900  Level Kansas City Center
12:49PM 35.7208 -96.7931 272° West 135 155 9,900  Level Kansas City Center
12:50PM 35.7222 -96.8386 272° West 134 154 9,900  Level Kansas City Center
12:51PM 35.7247 -96.8919 273° West 131 151 9,900  Level Kansas City Center
12:52PM 35.7256 -96.9367 271° West 131 151 9,900  Level Kansas City Center
12:53PM 35.7269 -96.9811 272° West 131 151 9,900  Level Kansas City Center
12:54PM 35.7283 -97.0258 272° West 131 151 9,900  Level Kansas City Center
12:55PM 35.7306 -97.0719 273° West 134 154 9,900  Level Kansas City Center
12:56PM 35.7319 -97.1167 272° West 133 153 9,900  Level Kansas City Center
12:58PM 35.7336 -97.1706 272° West 132 152 9,900  Level Kansas City Center
12:59PM 35.7358 -97.2164 273° West 134 154 9,900  Level Kansas City Center
01:00PM 35.7364 -97.2617 271° West 134 154 9,900  Level Kansas City Center
01:02PM 35.7392 -97.3503 272° West 131 151 9,900  Level Kansas City Center
01:03PM 35.7378 -97.4314 269° West 131 151 10,000  Climbing Fort Worth Center
01:04PM 35.7378 -97.4700 270° West 130 150 9,900 -60 Descending Fort Worth Center
01:05PM 35.7419 -97.5108 277° West 132 152 9,900  Level Fort Worth Center
01:06PM 35.7439 -97.5567 273° West 132 152 9,900  Level Fort Worth Center
01:07PM 35.7439 -97.6028 270° West 131 151 9,900  Level Fort Worth Center
01:08PM 35.7439 -97.6436 270° West 131 151 9,900  Level Fort Worth Center
01:09PM 35.7458 -97.6975 273° West 134 154 9,900  Level Fort Worth Center
01:10PM 35.7478 -97.7461 273° West 139 160 10,000  Climbing Fort Worth Center
01:11PM 35.7497 -97.7922 273° West 144 166 10,000 -60 Level Fort Worth Center
01:12PM 35.7517 -97.8356 273° West 144 166 9,900  Descending Fort Worth Center
01:13PM 35.7536 -97.8817 273° West 139 160 10,000  Climbing Fort Worth Center
01:14PM 35.7556 -97.9175 274° West 139 160 9,900 -60 Descending Fort Worth Center
01:15PM 35.7575 -97.9661 273° West 139 160 9,900  Level Fort Worth Center
01:16PM 35.7572 -98.0119 270° West 139 160 10,000  Climbing Fort Worth Center
01:17PM 35.7547 -98.0606 266° West 139 160 10,000  Level Fort Worth Center
01:18PM 35.7589 -98.1042 277° West 139 160 10,000  Level Fort Worth Center
01:19PM 35.7564 -98.1503 266° West 139 160 10,000 -60 Level Fort Worth Center
01:20PM 35.7625 -98.1936 280° West 139 160 9,900 -60 Descending Fort Worth Center
01:21PM 35.7600 -98.2397 266° West 139 160 9,900  Level Fort Worth Center
01:22PM 35.7619 -98.2858 273° West 139 160 10,000  Climbing Fort Worth Center
01:23PM 35.7636 -98.3319 273° West 139 160 10,000 -60 Level Fort Worth Center
01:24PM 35.7653 -98.3778 273° West 139 160 9,900  Descending Fort Worth Center
01:25PM 35.7650 -98.4239 270° West 139 160 10,000  Climbing Fort Worth Center
01:26PM 35.7644 -98.4725 269° West 139 160 9,900 -60 Descending Fort Worth Center
01:27PM 35.7661 -98.5186 273° West 139 160 9,900  Level Fort Worth Center
01:28PM 35.7658 -98.5647 270° West 139 160 10,000  Climbing Fort Worth Center
01:29PM 35.7675 -98.6106 273° West 139 160 10,000  Level Fort Worth Center
01:30PM 35.7692 -98.6567 273° West 139 160 10,000 -60 Level Fort Worth Center
01:31PM 35.7686 -98.7053 269° West 139 160 9,900  Descending Fort Worth Center
01:32PM 35.7703 -98.7539 272° West 139 160 10,000  Climbing Fort Worth Center
01:33PM 35.7697 -98.8000 269° West 139 160 9,900 -60 Descending Fort Worth Center
01:34PM 35.7692 -98.8536 269° West 139 160 9,900  Level Fort Worth Center
01:35PM 35.7706 -98.9022 272° West 139 160 9,900  Level Fort Worth Center
01:36PM 35.7719 -98.9536 272° West 144 166 9,900  Level Fort Worth Center
01:37PM 35.7736 -99.0022 272° West 144 166 9,900  Level Fort Worth Center
01:38PM 35.7728 -99.0533 269° West 144 166 10,000  Climbing Fort Worth Center
01:39PM 35.7722 -99.1019 269° West 144 166 9,900  Descending Fort Worth Center
01:40PM 35.7756 -99.1531 275° West 144 166 10,000  Climbing Fort Worth Center
01:41PM 35.7750 -99.2042 269° West 144 166 9,900 -60 Descending Fort Worth Center
01:42PM 35.7764 -99.2556 272° West 144 166 9,900  Level Fort Worth Center
01:43PM 35.7756 -99.3067 269° West 144 166 10,000  Climbing Fort Worth Center
01:44PM 35.7769 -99.3553 272° West 144 166 10,000  Level Fort Worth Center
01:45PM 35.7761 -99.4064 269° West 144 166 10,000  Level Fort Worth Center
01:46PM 35.7775 -99.4447 273° West 144 166 10,000  Level Fort Worth Center
01:47PM 35.7786 -99.5011 271° West 144 166 10,100  Climbing Fort Worth Center
01:49PM 35.7808 -99.5844 272° West 145 167 10,000 -60 Descending Albuquerque Center
01:50PM 35.7803 -99.6344 269° West 145 167 10,000  Level Albuquerque Center
01:51PM 35.7803 -99.6844 270° West 145 167 10,100  Climbing Albuquerque Center
01:52PM 35.7803 -99.7442 270° West 144 166 10,100  Level Albuquerque Center
01:53PM 35.7808 -99.7922 271° West 141 162 10,100  Level Albuquerque Center
01:54PM 35.7817 -99.8403 271° West 140 161 10,100  Level Albuquerque Center
01:55PM 35.7817 -99.8878 270° West 139 160 10,100 -60 Level Albuquerque Center
01:56PM 35.7819 -99.9358 270° West 138 159 10,000 -60 Descending Albuquerque Center
01:57PM 35.7814 -99.9831 269° West 138 159 10,000  Level Albuquerque Center
01:58PM 35.7814 -100.0303 270° West 138 159 10,000  Level Albuquerque Center
01:59PM 35.7828 -100.0889 272° West 140 161 10,100  Climbing Albuquerque Center
02:00PM 35.7825 -100.1367 270° West 140 161 10,000 -60 Descending Albuquerque Center
02:01PM 35.7833 -100.1861 271° West 143 165 10,000  Level Albuquerque Center
02:02PM 35.7842 -100.2344 271° West 142 163 10,000  Level Albuquerque Center
02:03PM 35.7831 -100.2814 268° West 139 160 10,000  Level Albuquerque Center
02:05PM 35.7847 -100.3283 273° West 138 159 10,000  Level Albuquerque Center
02:06PM 35.7850 -100.3758 270° West 139 160 10,000  Level Albuquerque Center
02:07PM 35.7839 -100.4319 269° West 137 158 10,000  Level Albuquerque Center
02:08PM 35.7833 -100.4786 269° West 137 158 10,000  Level Albuquerque Center
02:09PM 35.7822 -100.5264 268° West 139 160 10,000  Level Albuquerque Center
02:10PM 35.7828 -100.5758 271° West 142 163 10,000  Level Albuquerque Center
02:11PM 35.7839 -100.6247 272° West 145 167 10,000  Level Albuquerque Center
02:12PM 35.7833 -100.6722 269° West 141 162 10,000  Level Albuquerque Center
02:13PM 35.7831 -100.7186 270° West 137 158 10,000  Level Albuquerque Center
02:15PM 35.7828 -100.8239 270° West 140 161 10,000  Level Albuquerque Center
02:16PM 35.7842 -100.8719 272° West 140 161 10,000  Level Albuquerque Center
02:17PM 35.7833 -100.9175 269° West 135 155 10,000  Level Albuquerque Center
02:18PM 35.7831 -100.9686 270° West 135 155 10,000  Level Albuquerque Center
02:19PM 35.7831 -101.0158 270° West 138 159 10,000  Level Albuquerque Center
02:20PM 35.7836 -101.0647 271° West 141 162 10,000  Level Albuquerque Center
02:21PM 35.7836 -101.1136 270° West 143 165 10,000  Level Albuquerque Center
02:22PM 35.7833 -101.1625 270° West 144 166 10,000  Level Albuquerque Center
02:23PM 35.7831 -101.2119 270° West 145 167 10,000  Level Albuquerque Center
02:24PM 35.7825 -101.2689 269° West 141 162 10,000  Level Albuquerque Center
02:25PM 35.7822 -101.3164 270° West 140 161 10,000  Level Albuquerque Center
02:26PM 35.7817 -101.3636 269° West 139 160 10,000  Level Albuquerque Center
02:27PM 35.7811 -101.4133 269° West 143 165 10,000  Level Albuquerque Center
02:28PM 35.7817 -101.4631 271° West 144 166 10,000  Level Albuquerque Center
02:29PM 35.7814 -101.5119 270° West 145 167 10,000  Level Albuquerque Center
02:30PM 35.7817 -101.5692 270° West 142 163 10,000  Level Albuquerque Center
02:31PM 35.7814 -101.6158 270° West 140 161 10,000  Level Albuquerque Center
02:32PM 35.7803 -101.6633 268° West 140 161 10,000  Level Albuquerque Center
02:33PM 35.7800 -101.7092 270° West 138 159 10,000  Level Albuquerque Center
02:34PM 35.7789 -101.7539 268° West 135 155 10,000  Level Albuquerque Center
02:35PM 35.7786 -101.8003 270° West 135 155 10,000  Level Albuquerque Center
02:36PM 35.7783 -101.8494 270° West 139 160 10,000  Level Albuquerque Center
02:37PM 35.7778 -101.9075 269° West 143 165 10,000  Level Albuquerque Center
02:39PM 35.7778 -101.9553 270° West 142 163 10,000  Level Albuquerque Center
02:40PM 35.7769 -102.0058 269° West 145 167 10,000  Level Albuquerque Center
02:41PM 35.7764 -102.0544 269° West 142 163 10,000  Level Albuquerque Center
02:42PM 35.7758 -102.1033 269° West 145 167 10,000  Level Albuquerque Center
02:43PM 35.7750 -102.1553 269° West 150 173 10,000  Level Albuquerque Center
02:44PM 35.7747 -102.2189 270° West 154 177 10,000  Level Albuquerque Center
02:45PM 35.7733 -102.2700 268° West 150 173 10,100  Climbing Albuquerque Center
02:46PM 35.7719 -102.3225 268° West 153 176 10,100  Level Albuquerque Center
02:47PM 35.7719 -102.3783 270° West 161 185 10,200  Climbing Albuquerque Center
02:48PM 35.7733 -102.4314 272° West 158 182 10,100 -60 Descending Albuquerque Center
02:49PM 35.7700 -102.4828 265° West 153 176 10,100  Level Albuquerque Center
02:50PM 35.7689 -102.5467 269° West 155 178 10,100  Level Albuquerque Center
02:51PM 35.7681 -102.5983 269° West 154 177 10,100  Level Albuquerque Center
02:52PM 35.7717 -102.6522 275° West 157 181 10,100  Level Albuquerque Center
02:53PM 35.7689 -102.7078 266° West 161 185 10,100  Level Albuquerque Center
02:54PM 35.7636 -102.7608 263° West 158 182 10,100  Level Albuquerque Center
02:55PM 35.7622 -102.8131 268° West 154 177 10,100  Level Albuquerque Center
02:56PM 35.7644 -102.8669 273° West 157 181 10,100  Level Albuquerque Center
02:57PM 35.7614 -102.9281 266° West 158 182 10,100  Level Albuquerque Center
02:58PM 35.7589 -102.9811 267° West 155 178 10,100  Level Albuquerque Center
02:59PM 35.7639 -103.0328 277° West 151 174 10,100  Level Albuquerque Center
03:00PM 35.7578 -103.0864 262° West 154 177 10,100  Level Albuquerque Center
03:01PM 35.7581 -103.1503 270° West 158 182 10,200 -60 Climbing Albuquerque Center
03:02PM 35.7589 -103.2044 271° West 157 181 10,000 -120 Descending Albuquerque Center
03:03PM 35.7586 -103.2567 270° West 155 178 10,000  Level Albuquerque Center
03:04PM 35.7564 -103.3094 267° West 153 176 10,100  Climbing Albuquerque Center
03:05PM 35.7528 -103.3617 265° West 154 177 10,000 -60 Descending Albuquerque Center
03:06PM 35.7550 -103.4189 273° West 163 188 10,000 -60 Level Albuquerque Center
03:07PM 35.7531 -103.4722 267° West 160 184 9,900  Descending Albuquerque Center
03:08PM 35.7506 -103.5217 266° West 153 176 10,000  Climbing Albuquerque Center
03:09PM 35.7486 -103.5808 268° West 148 170 10,000  Level Albuquerque Center
03:10PM 35.7475 -103.6331 269° West 149 171 10,000  Level Albuquerque Center
03:11PM 35.7500 -103.6861 273° West 151 174 10,100  Climbing Albuquerque Center
03:13PM 35.7469 -103.7414 266° West 156 180 10,100 -60 Level Albuquerque Center
03:14PM 35.7422 -103.7922 263° West 154 177 10,000 -60 Descending Albuquerque Center
03:15PM 35.7419 -103.8478 270° West 156 180 10,000 -60 Level Albuquerque Center
03:16PM 35.7439 -103.9028 273° West 159 183 9,900  Descending Albuquerque Center
03:17PM 35.7403 -103.9569 265° West 159 183 10,100 180 Climbing Albuquerque Center
03:18PM 35.7411 -104.0228 271° West 161 185 10,300 -60 Climbing Albuquerque Center
03:19PM 35.7386 -104.0797 267° West 164 189 10,000 -180 Descending Albuquerque Center
03:20PM 35.7314 -104.1311 260° West 158 182 10,000  Level Albuquerque Center
03:21PM 35.7328 -104.1842 272° West 155 178 10,000 240 Level Albuquerque Center
03:22PM 35.7336 -104.2300 271° West 146 168 10,500 840 Climbing Albuquerque Center
03:23PM 35.7311 -104.2700 266° West 131 151 11,800 1,080 Climbing Albuquerque Center
03:24PM 35.7267 -104.3117 263° West 124 143 12,800 540 Climbing Albuquerque Center
03:25PM 35.7208 -104.3614 262° West 124 143 13,000 240 Climbing Albuquerque Center
03:26PM 35.7194 -104.4103 268° West 131 151 13,300 240 Climbing Albuquerque Center
03:27PM 35.7186 -104.4653 269° West 146 168 13,500 240 Climbing Albuquerque Center
03:28PM 35.7147 -104.5186 265° West 153 176 13,800 180 Climbing Albuquerque Center
03:29PM 35.7094 -104.5703 263° West 152 175 13,900 60 Climbing Albuquerque Center
03:30PM 35.7094 -104.6244 270° West 155 178 14,000 120 Climbing Albuquerque Center
03:31PM 35.7133 -104.6806 275° West 160 184 14,200 -60 Climbing Albuquerque Center
03:32PM 35.7114 -104.7431 268° West 158 182 13,900 -180 Descending Albuquerque Center
03:33PM 35.7072 -104.7944 264° West 154 177 13,900  Level Albuquerque Center
03:34PM 35.7044 -104.8450 266° West 150 173 13,900  Level Albuquerque Center
03:35PM 35.7011 -104.8967 265° West 149 171 13,900  Level Albuquerque Center
03:36PM 35.6986 -104.9492 267° West 151 174 13,900  Level Albuquerque Center
03:37PM 35.6981 -105.0011 269° West 151 174 13,900  Level Albuquerque Center
03:38PM 35.6972 -105.0517 269° West 149 171 13,900  Level Albuquerque Center
03:39PM 35.6953 -105.1044 267° West 151 174 13,900  Level Albuquerque Center
03:40PM 35.6925 -105.1692 267° West 156 180 13,900  Level Albuquerque Center
03:41PM 35.6908 -105.2253 268° West 160 184 13,900  Level Albuquerque Center
03:42PM 35.6894 -105.2767 268° West 155 178 14,000  Climbing Albuquerque Center
03:43PM 35.6872 -105.3361 267° West 163 188 14,000 -60 Level Albuquerque Center
03:45PM 35.6828 -105.3936 265° West 167 192 13,900  Descending Albuquerque Center
03:46PM 35.6811 -105.4478 268° West 163 188 14,000  Climbing Albuquerque Center
03:47PM 35.6828 -105.5008 272° West 158 182 14,000  Level Albuquerque Center
03:48PM 35.6814 -105.5608 268° West 153 176 14,100  Climbing Albuquerque Center
03:49PM 35.6736 -105.6092 259° West 151 174 14,100  Level Albuquerque Center
03:50PM 35.6711 -105.6664 267° West 153 176 14,100  Level Albuquerque Center
03:51PM 35.6686 -105.7131 266° West 153 176 14,100 -60 Level Albuquerque Center
03:52PM 35.6478 -105.7608 242° Southwest 157 181 14,000  Descending Albuquerque Center
03:53PM 35.6456 -105.8219 267° West 152 175 14,100  Climbing Albuquerque Center
03:54PM 35.6419 -105.8739 265° West 151 174 14,100  Level Albuquerque Center
03:55PM 35.6392 -105.9261 266° West 154 177 14,100 -60 Level Albuquerque Center
03:56PM 35.6367 -105.9781 267° West 152 175 14,000 -60 Descending Albuquerque Center
03:57PM 35.6353 -106.0308 268° West 154 177 14,000  Level Albuquerque Center
03:58PM 35.6325 -106.0825 266° West 154 177 14,000  Level Albuquerque Center
03:59PM 35.6300 -106.1344 267° West 152 175 14,000 -180 Level Albuquerque Center
04:00PM 35.6281 -106.1958 268° West 150 173 13,700 -420 Descending Albuquerque Center
04:01PM 35.6278 -106.2553 270° West 168 193 13,200 -540 Descending Albuquerque Center
04:02PM 35.6261 -106.3142 268° West 172 198 12,700 -540 Descending Albuquerque Center
04:03PM 35.6256 -106.3708 269° West 168 193 12,200 -420 Descending Albuquerque Center
04:04PM 35.6217 -106.4314 266° West 175 201 11,900 -120 Descending Albuquerque Center
04:05PM 35.6169 -106.4853 264° West 165 190 12,000  Climbing Albuquerque Center
04:06PM 35.6153 -106.5467 268° West 153 176 11,900 -60 Descending Albuquerque Center
04:07PM 35.6133 -106.5964 267° West 148 170 11,900  Level Albuquerque Center
04:08PM 35.6117 -106.6492 268° West 152 175 11,900  Level Albuquerque Center
04:09PM 35.6103 -106.6997 268° West 151 174 12,000  Climbing Albuquerque Center
04:10PM 35.6075 -106.7553 266° West 158 182 12,000 -60 Level Albuquerque Center
04:11PM 35.6053 -106.8078 267° West 157 181 11,900  Descending Albuquerque Center
04:12PM 35.6031 -106.8636 267° West 140 161 12,000  Climbing Albuquerque Center
04:13PM 35.6022 -106.9122 269° West 141 162 11,900 -60 Descending Albuquerque Center
04:14PM 35.5994 -106.9597 266° West 140 161 11,900  Level Albuquerque Center
04:15PM 35.5975 -107.0114 267° West 147 169 12,000  Climbing Albuquerque Center
04:17PM 35.5944 -107.0631 266° West 151 174 11,900 -60 Descending Albuquerque Center
04:18PM 35.5931 -107.1144 268° West 152 175 11,900  Level Albuquerque Center
04:19PM 35.5908 -107.1769 268° West 152 175 11,900  Level Albuquerque Center
04:20PM 35.5881 -107.2294 266° West 151 174 11,900  Level Albuquerque Center
04:21PM 35.5853 -107.2769 266° West 147 169 11,900  Level Albuquerque Center
04:22PM 35.5833 -107.3319 268° West 145 167 12,000  Climbing Albuquerque Center
04:23PM 35.5817 -107.3789 268° West 143 165 11,900  Descending Albuquerque Center
04:24PM 35.5792 -107.4328 267° West 141 162 12,000  Climbing Albuquerque Center
04:25PM 35.5761 -107.4872 266° West 157 181 12,000  Level Albuquerque Center
04:26PM 35.5722 -107.5500 266° West 165 190 12,100  Climbing Albuquerque Center
04:27PM 35.5742 -107.6000 273° West 158 182 12,100  Level Albuquerque Center
04:28PM 35.5675 -107.6494 261° West 153 176 12,100  Level Albuquerque Center
04:29PM 35.5631 -107.7100 265° West 158 182 12,100  Level Albuquerque Center
04:30PM 35.5644 -107.7614 272° West 158 182 12,100  Level Albuquerque Center
04:31PM 35.5639 -107.8211 269° West 156 180 12,100  Level Albuquerque Center
04:32PM 35.5592 -107.8736 264° West 159 183 12,100 -60 Level Albuquerque Center
04:33PM 35.5525 -107.9342 262° West 161 185 12,000  Descending Albuquerque Center
04:34PM 35.5511 -107.9839 268° West 157 181 12,100  Climbing Albuquerque Center
04:35PM 35.5525 -108.0408 272° West 152 175 12,100 -60 Level Albuquerque Center
04:36PM 35.5525 -108.0903 270° West 150 173 12,000 -60 Descending Albuquerque Center
04:37PM 35.5461 -108.1481 262° West 151 174 12,000  Level Albuquerque Center
04:38PM 35.5422 -108.1981 265° West 152 175 12,000  Level Albuquerque Center
04:39PM 35.5406 -108.2461 268° West 151 174 12,000  Level Albuquerque Center
04:40PM 35.5383 -108.3047 267° West 152 175 12,000 -180 Level Albuquerque Center
04:41PM 35.5361 -108.3567 267° West 155 178 11,700 -480 Descending Albuquerque Center
04:42PM 35.5322 -108.4200 266° West 161 185 11,100 -360 Descending Albuquerque Center
04:43PM 35.5261 -108.4694 261° West 159 183 11,000 -120 Descending Albuquerque Center
04:44PM 35.5169 -108.5208 258° West 148 170 10,900 -60 Descending Albuquerque Center
04:45PM 35.5106 -108.5633 260° West 139 160 10,900 -120 Level Albuquerque Center
04:46PM 35.5039 -108.6131 261° West 134 154 10,700  Descending Albuquerque Center
04:48PM 35.4967 -108.6575 259° West 135 155 11,000 120 Climbing Albuquerque Center
04:49PM 35.4892 -108.7125 261° West 141 162 11,000  Level Albuquerque Center
04:50PM 35.4808 -108.7597 258° West 144 166 11,000  Level Albuquerque Center
04:51PM 35.4725 -108.8067 258° West 146 168 11,000  Level Albuquerque Center
04:52PM 35.4639 -108.8642 260° West 149 171 11,100  Climbing Albuquerque Center
04:53PM 35.4569 -108.9194 261° West 158 182 11,000  Descending Albuquerque Center
04:54PM 35.4461 -108.9819 258° West 165 190 11,100  Climbing Albuquerque Center
04:55PM 35.4358 -109.0344 257° West 165 190 11,000 -120 Descending Albuquerque Center
04:56PM 35.4317 -109.0883 265° West 153 176 10,900 -180 Descending Albuquerque Center
04:57PM 35.4319 -109.1250 271° West 131 151 10,700 -540 Descending Albuquerque Center
04:58PM 35.4669 -109.1119 17° North 163 188 9,800 -720 Descending Albuquerque Center
04:59PM 35.4581 -109.0539 101° East 158 182 9,300 -540 Descending Albuquerque Center